createdAt,value
2022-10-06T00:00:40.329Z,99912.00
2022-10-06T00:01:40.376Z,99914.00
2022-10-06T00:02:40.381Z,99914.00
2022-10-06T00:03:40.346Z,99914.00
2022-10-06T00:04:40.378Z,99916.00
2022-10-06T00:05:40.426Z,99918.00
2022-10-06T00:06:40.398Z,99918.00
2022-10-06T00:07:40.395Z,99916.00
2022-10-06T00:08:40.460Z,99922.00
2022-10-06T00:09:40.434Z,99927.00
2022-10-06T00:10:40.522Z,99925.00
2022-10-06T00:11:40.511Z,99924.00
2022-10-06T00:12:40.510Z,99922.00
2022-10-06T00:13:40.577Z,99922.00
2022-10-06T00:14:40.527Z,99923.00
2022-10-06T00:15:40.598Z,99918.00
2022-10-06T00:16:40.599Z,99918.00
2022-10-06T00:17:40.610Z,99921.00
2022-10-06T00:18:40.617Z,99914.00
2022-10-06T00:19:40.632Z,99918.00
2022-10-06T00:20:40.638Z,99920.00
2022-10-06T00:21:40.662Z,99919.00
2022-10-06T00:22:40.684Z,99921.00
2022-10-06T00:23:40.718Z,99920.00
2022-10-06T00:24:40.690Z,99922.00
2022-10-06T00:25:40.698Z,99924.00
2022-10-06T00:26:40.733Z,99924.00
2022-10-06T00:27:40.756Z,99923.00
2022-10-06T00:28:40.875Z,99926.00
2022-10-06T00:29:40.828Z,99927.00
2022-10-06T00:30:40.885Z,99922.00
2022-10-06T00:31:40.790Z,99928.00
2022-10-06T00:32:40.768Z,99923.00
2022-10-06T00:33:40.795Z,99930.00
2022-10-06T00:34:40.820Z,99926.00
2022-10-06T00:35:40.811Z,99932.00
2022-10-06T00:36:40.841Z,99929.00
2022-10-06T00:37:40.858Z,99933.00
2022-10-06T00:38:40.870Z,99931.00
2022-10-06T00:39:40.893Z,99934.00
2022-10-06T00:40:40.911Z,99932.00
2022-10-06T00:41:40.957Z,99932.00
2022-10-06T00:42:40.940Z,99930.00
2022-10-06T00:43:40.985Z,99930.00
2022-10-06T00:44:40.993Z,99935.00
2022-10-06T00:45:41.041Z,99929.00
2022-10-06T00:46:41.159Z,99934.00
2022-10-06T00:47:41.073Z,99931.00
2022-10-06T00:48:41.095Z,99937.00
2022-10-06T00:49:41.099Z,99929.00
2022-10-06T00:50:41.137Z,99930.00
2022-10-06T00:51:41.153Z,99940.00
2022-10-06T00:52:41.158Z,99939.00
2022-10-06T00:53:41.163Z,99937.00
2022-10-06T00:54:41.191Z,99933.00
2022-10-06T00:55:41.213Z,99935.00
2022-10-06T00:56:41.242Z,99933.00
2022-10-06T00:57:41.257Z,99934.00
2022-10-06T00:58:41.270Z,99929.00
2022-10-06T00:59:41.301Z,99927.00
2022-10-06T01:00:41.319Z,99925.00
2022-10-06T01:01:41.405Z,99932.00
2022-10-06T01:02:41.427Z,99928.00
2022-10-06T01:03:41.393Z,99927.00
2022-10-06T01:04:41.420Z,99926.00
2022-10-06T01:05:41.459Z,99929.00
2022-10-06T01:06:41.431Z,99930.00
2022-10-06T01:07:41.465Z,99937.00
2022-10-06T01:08:41.472Z,99942.00
2022-10-06T01:09:41.478Z,99937.00
2022-10-06T01:10:41.503Z,99941.00
2022-10-06T01:11:41.528Z,99939.00
2022-10-06T01:12:41.569Z,99938.00
2022-10-06T01:13:41.552Z,99937.00
2022-10-06T01:14:41.593Z,99940.00
2022-10-06T01:15:41.616Z,99936.00
2022-10-06T01:16:41.564Z,99934.00
2022-10-06T01:17:41.597Z,99938.00
2022-10-06T01:18:41.554Z,99937.00
2022-10-06T01:19:41.578Z,99936.00
2022-10-06T01:20:41.607Z,99944.00
2022-10-06T01:21:41.633Z,99940.00
2022-10-06T01:22:41.655Z,99937.00
2022-10-06T01:23:41.641Z,99937.00
2022-10-06T01:24:41.667Z,99939.00
2022-10-06T01:25:41.695Z,99939.00
2022-10-06T01:26:41.694Z,99946.00
2022-10-06T01:27:41.717Z,99939.00
2022-10-06T01:28:41.816Z,99945.00
2022-10-06T01:29:41.759Z,99945.00
2022-10-06T01:30:41.851Z,99949.00
2022-10-06T01:31:41.804Z,99950.00
2022-10-06T01:32:41.826Z,99948.00
2022-10-06T01:33:41.893Z,99952.00
2022-10-06T01:34:41.837Z,99948.00
2022-10-06T01:35:41.864Z,99948.00
2022-10-06T01:36:41.874Z,99942.00
2022-10-06T01:37:41.907Z,99940.00
2022-10-06T01:38:41.931Z,99942.00
2022-10-06T01:39:41.936Z,99943.00
2022-10-06T01:40:41.981Z,99940.00
2022-10-06T01:41:41.938Z,99939.00
2022-10-06T01:42:41.959Z,99951.00
2022-10-06T01:43:41.990Z,99954.00
2022-10-06T01:44:42.044Z,99956.00
2022-10-06T01:45:42.006Z,99954.00
2022-10-06T01:46:42.161Z,99966.00
2022-10-06T01:47:42.058Z,99968.00
2022-10-06T01:48:42.101Z,99967.00
2022-10-06T01:49:42.145Z,99970.00
2022-10-06T01:50:42.098Z,99979.00
2022-10-06T01:51:42.143Z,99982.00
2022-10-06T01:52:42.148Z,99983.00
2022-10-06T01:53:42.188Z,99990.00
2022-10-06T01:54:42.204Z,99994.00
2022-10-06T01:55:42.211Z,99996.00
2022-10-06T01:56:42.245Z,99994.00
2022-10-06T01:57:42.281Z,99995.00
2022-10-06T01:58:42.254Z,100000.00
2022-10-06T01:59:42.296Z,99997.00
2022-10-06T02:00:42.270Z,99997.00
2022-10-06T02:01:42.335Z,99998.00
2022-10-06T02:02:42.329Z,100000.00
2022-10-06T02:03:42.361Z,100000.00
2022-10-06T02:04:42.392Z,100000.00
2022-10-06T02:05:42.558Z,100000.00
2022-10-06T02:06:42.506Z,100005.00
2022-10-06T02:07:42.469Z,100004.00
2022-10-06T02:08:42.430Z,99997.00
2022-10-06T02:09:42.440Z,100001.00
2022-10-06T02:10:42.469Z,100005.00
2022-10-06T02:11:42.529Z,100005.00
2022-10-06T02:12:42.495Z,100006.00
2022-10-06T02:13:42.521Z,100004.00
2022-10-06T02:14:42.553Z,100012.00
2022-10-06T02:15:42.631Z,100007.00
2022-10-06T02:16:42.620Z,100006.00
2022-10-06T02:17:42.638Z,100007.00
2022-10-06T02:18:42.682Z,100008.00
2022-10-06T02:19:42.668Z,100008.00
2022-10-06T02:20:42.692Z,100007.00
2022-10-06T02:21:42.734Z,100011.00
2022-10-06T02:22:42.735Z,100012.00
2022-10-06T02:23:42.768Z,100016.00
2022-10-06T02:24:42.748Z,100014.00
2022-10-06T02:25:42.769Z,100014.00
2022-10-06T02:26:42.798Z,100014.00
2022-10-06T02:27:42.833Z,100019.00
2022-10-06T02:28:42.908Z,100022.00
2022-10-06T02:29:42.850Z,100025.00
2022-10-06T02:30:42.883Z,100032.00
2022-10-06T02:31:43.000Z,100034.00
2022-10-06T02:32:42.929Z,100033.00
2022-10-06T02:33:42.930Z,100033.00
2022-10-06T02:34:42.946Z,100033.00
2022-10-06T02:35:42.904Z,100035.00
2022-10-06T02:36:42.928Z,100031.00
2022-10-06T02:37:42.977Z,100026.00
2022-10-06T02:38:42.990Z,100029.00
2022-10-06T02:39:42.979Z,100033.00
2022-10-06T02:40:42.972Z,100034.00
2022-10-06T02:41:42.958Z,100030.00
2022-10-06T02:42:42.957Z,100034.00
2022-10-06T02:43:42.970Z,100037.00
2022-10-06T02:44:42.991Z,100038.00
2022-10-06T02:45:43.021Z,100041.00
2022-10-06T02:46:43.070Z,100042.00
2022-10-06T02:47:43.070Z,100045.00
2022-10-06T02:48:43.124Z,100042.00
2022-10-06T02:49:43.132Z,100059.00
2022-10-06T02:50:43.155Z,100054.00
2022-10-06T02:51:43.346Z,100057.00
2022-10-06T02:52:43.129Z,100058.00
2022-10-06T02:53:43.165Z,100058.00
2022-10-06T02:54:43.162Z,100063.00
2022-10-06T02:55:43.189Z,100062.00
2022-10-06T02:56:43.452Z,100061.00
2022-10-06T02:57:43.238Z,100066.00
2022-10-06T02:58:43.224Z,100070.00
2022-10-06T02:59:43.241Z,100075.00
2022-10-06T03:00:43.277Z,100073.00
2022-10-06T03:01:43.417Z,100070.00
2022-10-06T03:02:43.544Z,100072.00
2022-10-06T03:03:43.295Z,100075.00
2022-10-06T03:04:43.302Z,100067.00
2022-10-06T03:05:43.345Z,100077.00
2022-10-06T03:06:43.366Z,100078.00
2022-10-06T03:07:43.348Z,100078.00
2022-10-06T03:08:43.361Z,100078.00
2022-10-06T03:09:43.402Z,100080.00
2022-10-06T03:10:43.432Z,100079.00
2022-10-06T03:11:43.437Z,100080.00
2022-10-06T03:12:43.428Z,100084.00
2022-10-06T03:13:43.421Z,100084.00
2022-10-06T03:14:43.434Z,100088.00
2022-10-06T03:15:43.500Z,100085.00
2022-10-06T03:16:43.447Z,100086.00
2022-10-06T03:17:43.474Z,100089.00
2022-10-06T03:18:43.472Z,100092.00
2022-10-06T03:19:43.479Z,100093.00
2022-10-06T03:20:43.497Z,100093.00
2022-10-06T03:21:43.520Z,100093.00
2022-10-06T03:22:43.556Z,100085.00
2022-10-06T03:23:43.528Z,100091.00
2022-10-06T03:24:43.548Z,100098.00
2022-10-06T03:25:43.585Z,100101.00
2022-10-06T03:26:43.603Z,100099.00
2022-10-06T03:27:43.616Z,100097.00
2022-10-06T03:28:43.662Z,100097.00
2022-10-06T03:29:43.632Z,100101.00
2022-10-06T03:30:43.618Z,100102.00
2022-10-06T03:31:43.712Z,100105.00
2022-10-06T03:32:43.655Z,100102.00
2022-10-06T03:33:43.699Z,100104.00
2022-10-06T03:34:43.665Z,100104.00
2022-10-06T03:35:43.704Z,100103.00
2022-10-06T03:36:43.732Z,100106.00
2022-10-06T03:37:43.761Z,100104.00
2022-10-06T03:38:43.779Z,100099.00
2022-10-06T03:39:43.794Z,100111.00
2022-10-06T03:40:43.840Z,100118.00
2022-10-06T03:41:43.873Z,100119.00
2022-10-06T03:42:43.872Z,100119.00
2022-10-06T03:43:43.899Z,100122.00
2022-10-06T03:44:43.925Z,100119.00
2022-10-06T03:45:43.959Z,100119.00
2022-10-06T03:46:44.073Z,100120.00
2022-10-06T03:47:44.015Z,100127.00
2022-10-06T03:48:44.037Z,100121.00
2022-10-06T03:49:44.066Z,100128.00
2022-10-06T03:50:44.298Z,100130.00
2022-10-06T03:51:44.073Z,100129.00
2022-10-06T03:52:44.102Z,100129.00
2022-10-06T03:53:44.097Z,100128.00
2022-10-06T03:54:44.075Z,100132.00
2022-10-06T03:55:44.101Z,100131.00
2022-10-06T03:56:44.130Z,100131.00
2022-10-06T03:57:44.126Z,100132.00
2022-10-06T03:58:44.120Z,100130.00
2022-10-06T03:59:44.143Z,100137.00
2022-10-06T04:00:44.225Z,100136.00
2022-10-06T04:01:44.288Z,100137.00
2022-10-06T04:02:44.213Z,100141.00
2022-10-06T04:03:44.234Z,100137.00
2022-10-06T04:04:44.252Z,100139.00
2022-10-06T04:05:44.268Z,100140.00
2022-10-06T04:06:44.279Z,100144.00
2022-10-06T04:07:44.282Z,100144.00
2022-10-06T04:08:44.300Z,100150.00
2022-10-06T04:09:44.326Z,100150.00
2022-10-06T04:10:44.335Z,100150.00
2022-10-06T04:11:44.364Z,100151.00
2022-10-06T04:12:44.370Z,100154.00
2022-10-06T04:13:44.418Z,100155.00
2022-10-06T04:14:44.429Z,100155.00
2022-10-06T04:15:44.415Z,100159.00
2022-10-06T04:16:44.526Z,100155.00
2022-10-06T04:17:44.470Z,100157.00
2022-10-06T04:18:44.439Z,100165.00
2022-10-06T04:19:44.474Z,100165.00
2022-10-06T04:20:44.486Z,100167.00
2022-10-06T04:21:44.516Z,100171.00
2022-10-06T04:22:44.638Z,100179.00
2022-10-06T04:23:44.553Z,100180.00
2022-10-06T04:24:44.594Z,100185.00
2022-10-06T04:25:44.617Z,100189.00
2022-10-06T04:26:44.616Z,100194.00
2022-10-06T04:27:44.633Z,100191.00
2022-10-06T04:28:44.750Z,100193.00
2022-10-06T04:29:44.690Z,100191.00
2022-10-06T04:30:44.685Z,100192.00
2022-10-06T04:31:44.754Z,100199.00
2022-10-06T04:32:44.756Z,100203.00
2022-10-06T04:33:44.726Z,100204.00
2022-10-06T04:34:44.748Z,100211.00
2022-10-06T04:35:44.779Z,100212.00
2022-10-06T04:36:44.823Z,100215.00
2022-10-06T04:37:44.832Z,100210.00
2022-10-06T04:38:44.831Z,100213.00
2022-10-06T04:39:44.853Z,100212.00
2022-10-06T04:40:44.896Z,100213.00
2022-10-06T04:41:44.866Z,100217.00
2022-10-06T04:42:44.892Z,100221.00
2022-10-06T04:43:44.918Z,100222.00
2022-10-06T04:44:44.947Z,100227.00
2022-10-06T04:45:45.089Z,100232.00
2022-10-06T04:46:45.542Z,100233.00
2022-10-06T04:47:44.959Z,100240.00
2022-10-06T04:48:44.984Z,100245.00
2022-10-06T04:49:45.015Z,100243.00
2022-10-06T04:50:45.048Z,100250.00
2022-10-06T04:51:45.023Z,100251.00
2022-10-06T04:52:45.054Z,100255.00
2022-10-06T04:53:45.074Z,100264.00
2022-10-06T04:54:45.100Z,100245.00
2022-10-06T04:57:11.037Z,100250.00
2022-10-06T04:58:11.065Z,100247.00
2022-10-06T04:59:11.084Z,100257.00
2022-10-06T05:00:14.719Z,100270.00
2022-10-06T05:02:37.158Z,100268.00
2022-10-06T05:03:37.060Z,100279.00
2022-10-06T05:04:37.057Z,100281.00
2022-10-06T05:05:37.074Z,100281.00
2022-10-06T05:06:37.152Z,100293.00
2022-10-06T05:07:37.121Z,100293.00
2022-10-06T05:08:37.097Z,100298.00
2022-10-06T05:09:37.127Z,100303.00
2022-10-06T05:10:37.143Z,100299.00
2022-10-06T05:11:37.158Z,100300.00
2022-10-06T05:12:37.126Z,100302.00
2022-10-06T05:13:37.108Z,100303.00
2022-10-06T05:14:37.123Z,100306.00
2022-10-06T05:15:37.145Z,100306.00
2022-10-06T05:16:37.298Z,100309.00
2022-10-06T05:17:37.196Z,100311.00
2022-10-06T05:18:37.221Z,100319.00
2022-10-06T05:19:37.171Z,100317.00
2022-10-06T05:20:37.357Z,100323.00
2022-10-06T05:21:37.179Z,100322.00
2022-10-06T05:22:37.208Z,100326.00
2022-10-06T05:23:37.244Z,100327.00
2022-10-06T05:24:37.216Z,100328.00
2022-10-06T05:25:37.248Z,100332.00
2022-10-06T05:26:37.268Z,100335.00
2022-10-06T05:27:37.392Z,100337.00
2022-10-06T05:28:37.394Z,100338.00
2022-10-06T05:29:37.566Z,100337.00
2022-10-06T05:30:37.353Z,100340.00
2022-10-06T05:31:37.394Z,100338.00
2022-10-06T05:32:37.405Z,100339.00
2022-10-06T05:33:37.388Z,100334.00
2022-10-06T05:34:37.537Z,100330.00
2022-10-06T05:35:37.471Z,100335.00
2022-10-06T05:36:37.383Z,100335.00
2022-10-06T05:37:37.415Z,100345.00
2022-10-06T05:38:37.423Z,100341.00
2022-10-06T05:39:37.430Z,100346.00
2022-10-06T05:40:37.443Z,100345.00
2022-10-06T05:41:37.470Z,100343.00
2022-10-06T05:42:37.550Z,100345.00
2022-10-06T05:43:37.490Z,100348.00
2022-10-06T05:44:37.495Z,100347.00
2022-10-06T05:45:37.652Z,100348.00
2022-10-06T05:46:37.566Z,100352.00
2022-10-06T05:47:37.569Z,100350.00
2022-10-06T05:48:37.571Z,100355.00
2022-10-06T05:49:37.544Z,100355.00
2022-10-06T05:50:37.594Z,100358.00
2022-10-06T05:51:37.581Z,100362.00
2022-10-06T05:52:37.579Z,100364.00
2022-10-06T05:53:37.613Z,100368.00
2022-10-06T05:54:37.629Z,100365.00
2022-10-06T05:55:37.657Z,100363.00
2022-10-06T05:56:37.679Z,100367.00
2022-10-06T05:57:37.727Z,100360.00
2022-10-06T05:58:37.703Z,100361.00
2022-10-06T05:59:37.731Z,100362.00
2022-10-06T06:00:37.733Z,100367.00
2022-10-06T06:01:37.837Z,100364.00
2022-10-06T06:02:37.875Z,100365.00
2022-10-06T06:03:37.773Z,100365.00
2022-10-06T06:04:37.787Z,100365.00
2022-10-06T06:05:37.815Z,100369.00
2022-10-06T06:06:37.869Z,100373.00
2022-10-06T06:07:37.878Z,100376.00
2022-10-06T06:08:37.975Z,100377.00
2022-10-06T06:09:37.931Z,100380.00
2022-10-06T06:10:37.956Z,100374.00
2022-10-06T06:11:37.985Z,100378.00
2022-10-06T06:12:37.966Z,100379.00
2022-10-06T06:13:37.988Z,100376.00
2022-10-06T06:14:37.955Z,100384.00
2022-10-06T06:15:37.984Z,100380.00
2022-10-06T06:16:38.062Z,100381.00
2022-10-06T06:17:37.975Z,100390.00
2022-10-06T06:18:37.962Z,100390.00
2022-10-06T06:19:37.993Z,100393.00
2022-10-06T06:20:38.015Z,100392.00
2022-10-06T06:21:38.042Z,100394.00
2022-10-06T06:22:38.092Z,100391.00
2022-10-06T06:23:38.056Z,100390.00
2022-10-06T06:24:38.038Z,100393.00
2022-10-06T06:25:38.111Z,100397.00
2022-10-06T06:26:38.106Z,100393.00
2022-10-06T06:27:38.107Z,100399.00
2022-10-06T06:28:38.213Z,100402.00
2022-10-06T06:29:38.120Z,100397.00
2022-10-06T06:30:38.127Z,100400.00
2022-10-06T06:31:38.268Z,100401.00
2022-10-06T06:32:38.267Z,100396.00
2022-10-06T06:33:38.270Z,100398.00
2022-10-06T06:34:38.230Z,100400.00
2022-10-06T06:35:38.288Z,100399.00
2022-10-06T06:36:38.344Z,100404.00
2022-10-06T06:37:38.300Z,100411.00
2022-10-06T06:38:38.298Z,100412.00
2022-10-06T06:39:38.319Z,100416.00
2022-10-06T06:40:38.325Z,100417.00
2022-10-06T06:41:38.336Z,100414.00
2022-10-06T06:42:38.332Z,100425.00
2022-10-06T06:43:38.354Z,100428.00
2022-10-06T06:44:38.385Z,100433.00
2022-10-06T06:45:38.433Z,100435.00
2022-10-06T06:46:38.443Z,100437.00
2022-10-06T06:47:38.452Z,100441.00
2022-10-06T06:48:38.400Z,100442.00
2022-10-06T06:49:38.468Z,100438.00
2022-10-06T06:50:38.470Z,100434.00
2022-10-06T06:51:38.499Z,100438.00
2022-10-06T06:52:38.509Z,100445.00
2022-10-06T06:53:38.531Z,100444.00
2022-10-06T06:54:38.621Z,100445.00
2022-10-06T06:55:38.568Z,100453.00
2022-10-06T06:56:38.575Z,100452.00
2022-10-06T06:57:38.593Z,100456.00
2022-10-06T06:58:38.648Z,100458.00
2022-10-06T06:59:38.652Z,100456.00
2022-10-06T07:00:38.681Z,100457.00
2022-10-06T07:01:38.837Z,100459.00
2022-10-06T07:02:38.712Z,100461.00
2022-10-06T07:03:56.665Z,100462.00
2022-10-06T07:04:38.763Z,100464.00
2022-10-06T07:05:38.780Z,100466.00
2022-10-06T07:06:38.802Z,100465.00
2022-10-06T07:07:38.769Z,100468.00
2022-10-06T07:08:38.774Z,100468.00
2022-10-06T07:09:38.801Z,100470.00
2022-10-06T07:10:38.863Z,100475.00
2022-10-06T07:11:38.820Z,100475.00
2022-10-06T07:12:38.847Z,100483.00
2022-10-06T07:13:38.892Z,100484.00
2022-10-06T07:14:38.845Z,100486.00
2022-10-06T07:15:38.964Z,100490.00
2022-10-06T07:16:38.916Z,100491.00
2022-10-06T07:17:38.889Z,100496.00
2022-10-06T07:18:38.876Z,100501.00
2022-10-06T07:19:38.858Z,100502.00
2022-10-06T07:20:38.891Z,100503.00
2022-10-06T07:21:38.918Z,100504.00
2022-10-06T07:22:38.945Z,100505.00
2022-10-06T07:23:38.968Z,100505.00
2022-10-06T07:24:39.012Z,100506.00
2022-10-06T07:25:39.042Z,100505.00
2022-10-06T07:26:39.058Z,100509.00
2022-10-06T07:27:39.063Z,100513.00
2022-10-06T07:28:39.152Z,100512.00
2022-10-06T07:29:39.118Z,100515.00
2022-10-06T07:30:40.820Z,100521.00
2022-10-06T07:31:39.196Z,100526.00
2022-10-06T07:32:39.189Z,100526.00
2022-10-06T07:33:39.139Z,100528.00
2022-10-06T07:34:39.716Z,100529.00
2022-10-06T07:35:39.259Z,100531.00
2022-10-06T07:36:39.196Z,100534.00
2022-10-06T07:37:39.195Z,100539.00
2022-10-06T07:38:39.193Z,100533.00
2022-10-06T07:39:39.203Z,100533.00
2022-10-06T07:40:46.296Z,100538.00
2022-10-06T07:41:39.240Z,100539.00
2022-10-06T07:42:39.287Z,100543.00
2022-10-06T07:43:39.257Z,100544.00
2022-10-06T07:44:39.276Z,100549.00
2022-10-06T07:45:39.625Z,100551.00
2022-10-06T07:46:39.322Z,100552.00
2022-10-06T07:47:39.410Z,100558.00
2022-10-06T07:48:39.378Z,100557.00
2022-10-06T07:49:39.397Z,100555.00
2022-10-06T07:50:39.451Z,100557.00
2022-10-06T07:51:39.394Z,100558.00
2022-10-06T07:52:39.549Z,100560.00
2022-10-06T07:53:39.434Z,100562.00
2022-10-06T07:54:39.444Z,100566.00
2022-10-06T07:55:39.483Z,100557.00
2022-10-06T07:56:39.468Z,100561.00
2022-10-06T07:57:39.498Z,100563.00
2022-10-06T07:58:39.539Z,100564.00
2022-10-06T07:59:39.544Z,100567.00
2022-10-06T08:00:39.663Z,100567.00
2022-10-06T08:01:39.688Z,100568.00
2022-10-06T08:02:39.680Z,100572.00
2022-10-06T08:03:39.610Z,100572.00
2022-10-06T08:04:39.607Z,100575.00
2022-10-06T08:05:39.590Z,100583.00
2022-10-06T08:06:39.622Z,100578.00
2022-10-06T08:07:39.628Z,100577.00
2022-10-06T08:08:39.633Z,100574.00
2022-10-06T08:09:39.662Z,100572.00
2022-10-06T08:10:39.682Z,100582.00
2022-10-06T08:11:39.722Z,100578.00
2022-10-06T08:12:39.929Z,100580.00
2022-10-06T08:13:39.730Z,100582.00
2022-10-06T08:14:39.742Z,100583.00
2022-10-06T08:15:39.826Z,100583.00
2022-10-06T08:16:39.741Z,100580.00
2022-10-06T08:17:39.778Z,100581.00
2022-10-06T08:18:46.528Z,100584.00
2022-10-06T08:19:39.807Z,100584.00
2022-10-06T08:20:39.825Z,100584.00
2022-10-06T08:21:39.849Z,100589.00
2022-10-06T08:22:39.857Z,100590.00
2022-10-06T08:23:39.890Z,100589.00
2022-10-06T08:25:04.185Z,100589.00
2022-10-06T08:25:39.914Z,100597.00
2022-10-06T08:26:39.932Z,100587.00
2022-10-06T08:27:39.955Z,100591.00
2022-10-06T08:28:40.129Z,100587.00
2022-10-06T08:29:40.066Z,100588.00
2022-10-06T08:30:40.136Z,100589.00
2022-10-06T08:31:40.272Z,100590.00
2022-10-06T08:32:40.016Z,100587.00
2022-10-06T08:33:40.001Z,100598.00
2022-10-06T08:34:39.973Z,100603.00
2022-10-06T08:35:39.997Z,100600.00
2022-10-06T08:36:44.964Z,100598.00
2022-10-06T08:37:40.163Z,100604.00
2022-10-06T08:38:40.058Z,100604.00
2022-10-06T08:39:40.083Z,100609.00
2022-10-06T08:40:40.014Z,100609.00
2022-10-06T08:41:40.023Z,100604.00
2022-10-06T08:42:40.039Z,100610.00
2022-10-06T08:43:40.107Z,100600.00
2022-10-06T08:44:40.059Z,100603.00
2022-10-06T08:45:40.183Z,100607.00
2022-10-06T08:46:40.250Z,100608.00
2022-10-06T08:47:40.124Z,100611.00
2022-10-06T08:48:40.127Z,100613.00
2022-10-06T08:49:40.111Z,100607.00
2022-10-06T08:50:40.130Z,100615.00
2022-10-06T08:51:40.102Z,100614.00
2022-10-06T08:52:40.164Z,100617.00
2022-10-06T08:53:40.132Z,100616.00
2022-10-06T08:54:40.184Z,100617.00
2022-10-06T08:55:40.159Z,100625.00
2022-10-06T08:56:40.122Z,100628.00
2022-10-06T08:57:40.151Z,100623.00
2022-10-06T08:58:40.162Z,100623.00
2022-10-06T08:59:40.217Z,100627.00
2022-10-06T09:00:40.186Z,100619.00
2022-10-06T09:01:40.291Z,100623.00
2022-10-06T09:02:40.313Z,100629.00
2022-10-06T09:03:40.167Z,100626.00
2022-10-06T09:04:40.214Z,100630.00
2022-10-06T09:05:40.182Z,100630.00
2022-10-06T09:06:40.170Z,100626.00
2022-10-06T09:07:40.226Z,100625.00
2022-10-06T09:08:40.195Z,100628.00
2022-10-06T09:09:40.177Z,100626.00
2022-10-06T09:10:40.179Z,100629.00
2022-10-06T09:11:40.207Z,100629.00
2022-10-06T09:12:40.230Z,100623.00
2022-10-06T09:13:40.206Z,100630.00
2022-10-06T09:14:40.225Z,100638.00
2022-10-06T09:15:40.306Z,100633.00
2022-10-06T09:16:40.245Z,100631.00
2022-10-06T09:17:40.273Z,100632.00
2022-10-06T09:19:09.823Z,100632.00
2022-10-06T09:19:40.290Z,100631.00
2022-10-06T09:20:40.287Z,100637.00
2022-10-06T09:21:40.325Z,100636.00
2022-10-06T09:22:40.360Z,100634.00
2022-10-06T09:23:40.483Z,100630.00
2022-10-06T09:24:44.776Z,100637.00
2022-10-06T09:25:40.369Z,100636.00
2022-10-06T09:26:40.392Z,100643.00
2022-10-06T09:27:40.451Z,100633.00
2022-10-06T09:28:40.476Z,100636.00
2022-10-06T09:29:40.411Z,100637.00
2022-10-06T09:30:40.437Z,100641.00
2022-10-06T09:31:40.502Z,100643.00
2022-10-06T09:32:40.458Z,100641.00
2022-10-06T09:33:40.421Z,100641.00
2022-10-06T09:34:40.492Z,100644.00
2022-10-06T09:35:40.442Z,100645.00
2022-10-06T09:36:40.441Z,100643.00
2022-10-06T09:37:40.435Z,100639.00
2022-10-06T09:38:40.441Z,100644.00
2022-10-06T09:39:40.449Z,100649.00
2022-10-06T09:40:40.445Z,100641.00
2022-10-06T09:41:40.463Z,100641.00
2022-10-06T09:42:40.452Z,100641.00
2022-10-06T09:43:40.691Z,100639.00
2022-10-06T09:44:40.463Z,100637.00
2022-10-06T09:45:40.435Z,100642.00
2022-10-06T09:46:40.448Z,100649.00
2022-10-06T09:47:40.509Z,100640.00
2022-10-06T09:48:40.561Z,100640.00
2022-10-06T09:49:40.510Z,100641.00
2022-10-06T09:50:40.574Z,100640.00
2022-10-06T09:51:40.526Z,100641.00
2022-10-06T09:52:40.547Z,100641.00
2022-10-06T09:53:40.518Z,100641.00
2022-10-06T09:54:40.549Z,100637.00
2022-10-06T09:55:40.561Z,100642.00
2022-10-06T09:56:40.592Z,100644.00
2022-10-06T09:57:40.609Z,100645.00
2022-10-06T09:58:40.600Z,100645.00
2022-10-06T09:59:40.627Z,100647.00
2022-10-06T10:00:40.745Z,100646.00
2022-10-06T10:01:40.684Z,100652.00
2022-10-06T10:02:40.739Z,100649.00
2022-10-06T10:03:44.530Z,100653.00
2022-10-06T10:04:40.716Z,100646.00
2022-10-06T10:05:40.727Z,100653.00
2022-10-06T10:06:40.795Z,100651.00
2022-10-06T10:07:40.768Z,100650.00
2022-10-06T10:08:40.765Z,100649.00
2022-10-06T10:09:40.777Z,100652.00
2022-10-06T10:10:40.857Z,100649.00
2022-10-06T10:11:40.825Z,100655.00
2022-10-06T10:12:40.917Z,100658.00
2022-10-06T10:13:40.832Z,100657.00
2022-10-06T10:14:41.212Z,100658.00
2022-10-06T10:15:41.059Z,100658.00
2022-10-06T10:16:40.900Z,100658.00
2022-10-06T10:17:40.984Z,100657.00
2022-10-06T10:18:41.003Z,100660.00
2022-10-06T10:19:40.990Z,100661.00
2022-10-06T10:20:40.943Z,100656.00
2022-10-06T10:21:40.999Z,100660.00
2022-10-06T10:22:41.019Z,100656.00
2022-10-06T10:23:41.038Z,100662.00
2022-10-06T10:24:41.055Z,100656.00
2022-10-06T10:25:41.146Z,100655.00
2022-10-06T10:26:41.156Z,100659.00
2022-10-06T10:27:41.059Z,100656.00
2022-10-06T10:28:41.158Z,100653.00
2022-10-06T10:29:41.096Z,100654.00
2022-10-06T10:30:41.150Z,100651.00
2022-10-06T10:31:41.242Z,100656.00
2022-10-06T10:32:41.120Z,100657.00
2022-10-06T10:33:49.628Z,100656.00
2022-10-06T10:34:41.126Z,100654.00
2022-10-06T10:35:41.137Z,100652.00
2022-10-06T10:36:41.145Z,100665.00
2022-10-06T10:37:41.189Z,100653.00
2022-10-06T10:38:41.226Z,100663.00
2022-10-06T10:39:41.234Z,100656.00
2022-10-06T10:40:41.210Z,100660.00
2022-10-06T10:41:41.218Z,100661.00
2022-10-06T10:42:41.269Z,100661.00
2022-10-06T10:43:41.236Z,100669.00
2022-10-06T10:44:41.264Z,100661.00
2022-10-06T10:45:41.248Z,100658.00
2022-10-06T10:46:41.338Z,100658.00
2022-10-06T10:47:41.275Z,100667.00
2022-10-06T10:48:41.275Z,100667.00
2022-10-06T10:49:41.338Z,100661.00
2022-10-06T10:50:41.307Z,100661.00
2022-10-06T10:51:41.304Z,100674.00
2022-10-06T10:52:41.356Z,100661.00
2022-10-06T10:53:42.669Z,100660.00
2022-10-06T10:54:41.369Z,100659.00
2022-10-06T10:55:41.330Z,100666.00
2022-10-06T10:56:41.368Z,100659.00
2022-10-06T10:57:41.338Z,100661.00
2022-10-06T10:58:41.394Z,100660.00
2022-10-06T10:59:41.350Z,100657.00
2022-10-06T11:00:41.438Z,100661.00
2022-10-06T11:01:41.425Z,100660.00
2022-10-06T11:02:41.381Z,100655.00
2022-10-06T11:03:41.459Z,100657.00
2022-10-06T11:04:41.491Z,100658.00
2022-10-06T11:05:41.480Z,100658.00
2022-10-06T11:06:41.876Z,100660.00
2022-10-06T11:07:41.495Z,100650.00
2022-10-06T11:08:41.497Z,100654.00
2022-10-06T11:09:41.582Z,100648.00
2022-10-06T11:10:41.556Z,100650.00
2022-10-06T11:11:41.488Z,100649.00
2022-10-06T11:12:41.642Z,100650.00
2022-10-06T11:13:41.519Z,100646.00
2022-10-06T11:14:41.562Z,100645.00
2022-10-06T11:15:41.571Z,100650.00
2022-10-06T11:16:41.590Z,100653.00
2022-10-06T11:17:41.653Z,100650.00
2022-10-06T11:18:41.750Z,100653.00
2022-10-06T11:19:41.683Z,100652.00
2022-10-06T11:20:41.646Z,100645.00
2022-10-06T11:21:41.686Z,100644.00
2022-10-06T11:22:41.736Z,100653.00
2022-10-06T11:23:41.740Z,100649.00
2022-10-06T11:24:41.828Z,100650.00
2022-10-06T11:25:41.814Z,100654.00
2022-10-06T11:26:41.861Z,100648.00
2022-10-06T11:27:41.821Z,100652.00
2022-10-06T11:28:41.938Z,100650.00
2022-10-06T11:29:41.861Z,100652.00
2022-10-06T11:30:41.839Z,100652.00